sensor_id;sensor_type;location;lat;lon;timestamp;temperature;humidity
21216;DHT22;10765;50.954;5.322;2023-12-20T00:01:02;6.20;99.90
21216;DHT22;10765;50.954;5.322;2023-12-20T00:03:29;6.20;99.90
21216;DHT22;10765;50.954;5.322;2023-12-20T00:05:56;6.10;99.90
21216;DHT22;10765;50.954;5.322;2023-12-20T00:08:23;6.10;99.90
21216;DHT22;10765;50.954;5.322;2023-12-20T00:10:49;6.10;99.90
21216;DHT22;10765;50.954;5.322;2023-12-20T00:13:16;6.00;99.90
21216;DHT22;10765;50.954;5.322;2023-12-20T00:15:45;5.90;99.90
21216;DHT22;10765;50.954;5.322;2023-12-20T00:18:11;5.90;99.90
21216;DHT22;10765;50.954;5.322;2023-12-20T00:20:38;6.10;99.90
21216;DHT22;10765;50.954;5.322;2023-12-20T00:23:04;6.20;99.90
21216;DHT22;10765;50.954;5.322;2023-12-20T00:25:31;6.20;99.90
21216;DHT22;10765;50.954;5.322;2023-12-20T00:27:58;6.10;99.90
21216;DHT22;10765;50.954;5.322;2023-12-20T00:30:25;6.00;99.90
21216;DHT22;10765;50.954;5.322;2023-12-20T00:32:53;5.90;99.90
21216;DHT22;10765;50.954;5.322;2023-12-20T00:35:20;5.80;99.90
21216;DHT22;10765;50.954;5.322;2023-12-20T00:37:47;5.70;99.90
21216;DHT22;10765;50.954;5.322;2023-12-20T00:40:14;5.60;99.90
21216;DHT22;10765;50.954;5.322;2023-12-20T00:42:41;5.60;99.90
21216;DHT22;10765;50.954;5.322;2023-12-20T00:45:08;5.50;99.90
21216;DHT22;10765;50.954;5.322;2023-12-20T00:47:35;5.60;99.90
21216;DHT22;10765;50.954;5.322;2023-12-20T00:50:04;5.70;99.90
21216;DHT22;10765;50.954;5.322;2023-12-20T00:52:31;5.80;99.90
21216;DHT22;10765;50.954;5.322;2023-12-20T00:54:58;5.70;99.90
21216;DHT22;10765;50.954;5.322;2023-12-20T00:57:25;5.60;99.90
21216;DHT22;10765;50.954;5.322;2023-12-20T00:59:52;5.50;99.90
21216;DHT22;10765;50.954;5.322;2023-12-20T01:02:19;5.50;99.90
21216;DHT22;10765;50.954;5.322;2023-12-20T01:04:46;5.50;99.90
21216;DHT22;10765;50.954;5.322;2023-12-20T01:07:14;5.50;99.90
21216;DHT22;10765;50.954;5.322;2023-12-20T01:09:41;5.60;99.90
21216;DHT22;10765;50.954;5.322;2023-12-20T01:12:08;5.60;99.90
21216;DHT22;10765;50.954;5.322;2023-12-20T01:14:34;5.60;99.90
21216;DHT22;10765;50.954;5.322;2023-12-20T01:17:01;5.60;99.90
21216;DHT22;10765;50.954;5.322;2023-12-20T01:19:28;5.70;99.90
21216;DHT22;10765;50.954;5.322;2023-12-20T01:21:55;5.70;99.90
21216;DHT22;10765;50.954;5.322;2023-12-20T01:24:23;5.80;99.90
21216;DHT22;10765;50.954;5.322;2023-12-20T01:26:50;5.70;99.90
21216;DHT22;10765;50.954;5.322;2023-12-20T01:29:17;5.70;99.90
21216;DHT22;10765;50.954;5.322;2023-12-20T01:31:44;5.70;99.90
21216;DHT22;10765;50.954;5.322;2023-12-20T01:34:11;5.60;99.90
21216;DHT22;10765;50.954;5.322;2023-12-20T01:36:38;5.50;99.90
21216;DHT22;10765;50.954;5.322;2023-12-20T01:39:05;5.40;99.90
21216;DHT22;10765;50.954;5.322;2023-12-20T01:41:33;5.30;99.90
21216;DHT22;10765;50.954;5.322;2023-12-20T01:44:00;5.30;99.90
21216;DHT22;10765;50.954;5.322;2023-12-20T01:46:27;5.20;99.90
21216;DHT22;10765;50.954;5.322;2023-12-20T01:48:54;5.20;99.90
21216;DHT22;10765;50.954;5.322;2023-12-20T01:51:21;5.10;99.90
21216;DHT22;10765;50.954;5.322;2023-12-20T01:53:48;5.00;99.90
21216;DHT22;10765;50.954;5.322;2023-12-20T01:56:16;5.00;99.90
21216;DHT22;10765;50.954;5.322;2023-12-20T01:58:46;5.10;99.90
21216;DHT22;10765;50.954;5.322;2023-12-20T02:01:14;5.20;99.90
21216;DHT22;10765;50.954;5.322;2023-12-20T02:03:42;5.20;99.90
21216;DHT22;10765;50.954;5.322;2023-12-20T02:06:09;5.10;99.90
21216;DHT22;10765;50.954;5.322;2023-12-20T02:08:36;5.00;99.90
21216;DHT22;10765;50.954;5.322;2023-12-20T02:11:03;5.00;99.90
21216;DHT22;10765;50.954;5.322;2023-12-20T02:13:33;5.00;99.90
21216;DHT22;10765;50.954;5.322;2023-12-20T02:16:01;5.00;99.90
21216;DHT22;10765;50.954;5.322;2023-12-20T02:18:28;5.00;99.90
21216;DHT22;10765;50.954;5.322;2023-12-20T02:20:55;4.90;99.90
21216;DHT22;10765;50.954;5.322;2023-12-20T02:23:23;5.00;99.90
21216;DHT22;10765;50.954;5.322;2023-12-20T02:25:51;4.90;99.90
21216;DHT22;10765;50.954;5.322;2023-12-20T02:28:18;4.90;99.90
21216;DHT22;10765;50.954;5.322;2023-12-20T02:30:47;4.90;99.90
21216;DHT22;10765;50.954;5.322;2023-12-20T02:33:15;4.80;99.90
21216;DHT22;10765;50.954;5.322;2023-12-20T02:35:42;4.80;99.90
21216;DHT22;10765;50.954;5.322;2023-12-20T02:38:09;4.80;99.90
21216;DHT22;10765;50.954;5.322;2023-12-20T02:40:37;4.80;99.90
21216;DHT22;10765;50.954;5.322;2023-12-20T02:43:04;4.80;99.90
21216;DHT22;10765;50.954;5.322;2023-12-20T02:45:31;4.80;99.90
21216;DHT22;10765;50.954;5.322;2023-12-20T02:47:58;4.80;99.90
21216;DHT22;10765;50.954;5.322;2023-12-20T02:50:25;4.90;99.90
21216;DHT22;10765;50.954;5.322;2023-12-20T02:52:52;4.90;99.90
21216;DHT22;10765;50.954;5.322;2023-12-20T02:55:19;4.90;99.90
21216;DHT22;10765;50.954;5.322;2023-12-20T02:57:47;4.90;99.90
21216;DHT22;10765;50.954;5.322;2023-12-20T03:00:14;4.90;99.90
21216;DHT22;10765;50.954;5.322;2023-12-20T03:02:43;4.90;99.90
21216;DHT22;10765;50.954;5.322;2023-12-20T03:05:10;4.80;99.90
21216;DHT22;10765;50.954;5.322;2023-12-20T03:07:37;4.90;99.90
21216;DHT22;10765;50.954;5.322;2023-12-20T03:10:05;4.90;99.90
21216;DHT22;10765;50.954;5.322;2023-12-20T03:12:33;5.00;99.90
21216;DHT22;10765;50.954;5.322;2023-12-20T03:15:01;5.10;99.90
21216;DHT22;10765;50.954;5.322;2023-12-20T03:17:28;5.10;99.90
21216;DHT22;10765;50.954;5.322;2023-12-20T03:19:55;5.20;99.90
21216;DHT22;10765;50.954;5.322;2023-12-20T03:22:22;5.20;99.90
21216;DHT22;10765;50.954;5.322;2023-12-20T03:24:49;5.20;99.90
21216;DHT22;10765;50.954;5.322;2023-12-20T03:27:15;5.20;99.90
21216;DHT22;10765;50.954;5.322;2023-12-20T03:29:44;5.20;99.90
21216;DHT22;10765;50.954;5.322;2023-12-20T03:32:12;5.20;99.90
21216;DHT22;10765;50.954;5.322;2023-12-20T03:34:39;5.20;99.90
21216;DHT22;10765;50.954;5.322;2023-12-20T03:37:06;5.20;99.90
21216;DHT22;10765;50.954;5.322;2023-12-20T03:39:33;5.20;99.90
21216;DHT22;10765;50.954;5.322;2023-12-20T03:41:59;5.20;99.90
21216;DHT22;10765;50.954;5.322;2023-12-20T03:44:26;5.10;99.90
21216;DHT22;10765;50.954;5.322;2023-12-20T03:46:53;5.10;99.90
21216;DHT22;10765;50.954;5.322;2023-12-20T03:49:21;5.10;99.90
21216;DHT22;10765;50.954;5.322;2023-12-20T03:51:48;5.10;99.90
21216;DHT22;10765;50.954;5.322;2023-12-20T03:54:15;5.10;99.90
21216;DHT22;10765;50.954;5.322;2023-12-20T03:56:42;5.20;99.90
21216;DHT22;10765;50.954;5.322;2023-12-20T03:59:09;5.20;99.90
21216;DHT22;10765;50.954;5.322;2023-12-20T04:01:36;5.30;99.90
21216;DHT22;10765;50.954;5.322;2023-12-20T04:04:03;5.30;99.90
21216;DHT22;10765;50.954;5.322;2023-12-20T04:06:31;5.30;99.90
21216;DHT22;10765;50.954;5.322;2023-12-20T04:08:58;5.20;99.90
21216;DHT22;10765;50.954;5.322;2023-12-20T04:11:25;5.30;99.90
21216;DHT22;10765;50.954;5.322;2023-12-20T04:13:52;5.20;99.90
21216;DHT22;10765;50.954;5.322;2023-12-20T04:16:18;5.30;99.90
21216;DHT22;10765;50.954;5.322;2023-12-20T04:18:45;5.30;99.90
21216;DHT22;10765;50.954;5.322;2023-12-20T04:21:12;5.40;99.90
21216;DHT22;10765;50.954;5.322;2023-12-20T04:23:40;5.40;99.90
21216;DHT22;10765;50.954;5.322;2023-12-20T04:26:07;5.40;99.90
21216;DHT22;10765;50.954;5.322;2023-12-20T04:28:34;5.40;99.90
21216;DHT22;10765;50.954;5.322;2023-12-20T04:31:01;5.50;99.90
21216;DHT22;10765;50.954;5.322;2023-12-20T04:33:28;5.60;99.90
21216;DHT22;10765;50.954;5.322;2023-12-20T04:35:55;5.50;99.90
21216;DHT22;10765;50.954;5.322;2023-12-20T04:38:23;5.60;99.90
21216;DHT22;10765;50.954;5.322;2023-12-20T04:40:52;5.50;99.90
21216;DHT22;10765;50.954;5.322;2023-12-20T04:43:18;5.50;99.90
21216;DHT22;10765;50.954;5.322;2023-12-20T04:45:45;5.60;99.90
21216;DHT22;10765;50.954;5.322;2023-12-20T04:48:14;5.60;99.90
21216;DHT22;10765;50.954;5.322;2023-12-20T04:50:41;5.70;99.90
21216;DHT22;10765;50.954;5.322;2023-12-20T04:53:08;5.70;99.90
21216;DHT22;10765;50.954;5.322;2023-12-20T04:55:35;5.70;99.90
21216;DHT22;10765;50.954;5.322;2023-12-20T04:58:03;5.70;99.90
21216;DHT22;10765;50.954;5.322;2023-12-20T05:00:30;5.70;99.90
21216;DHT22;10765;50.954;5.322;2023-12-20T05:02:57;5.70;99.90
21216;DHT22;10765;50.954;5.322;2023-12-20T05:05:24;5.80;99.90
21216;DHT22;10765;50.954;5.322;2023-12-20T05:07:51;5.90;99.90
21216;DHT22;10765;50.954;5.322;2023-12-20T05:10:18;5.90;99.90
21216;DHT22;10765;50.954;5.322;2023-12-20T05:12:45;5.90;99.90
21216;DHT22;10765;50.954;5.322;2023-12-20T05:15:13;5.90;99.90
21216;DHT22;10765;50.954;5.322;2023-12-20T05:17:40;5.80;99.90
21216;DHT22;10765;50.954;5.322;2023-12-20T05:20:08;5.80;99.90
21216;DHT22;10765;50.954;5.322;2023-12-20T05:22:35;5.80;99.90
21216;DHT22;10765;50.954;5.322;2023-12-20T05:25:03;5.70;99.90
21216;DHT22;10765;50.954;5.322;2023-12-20T05:27:30;5.70;99.90
21216;DHT22;10765;50.954;5.322;2023-12-20T05:29:57;5.70;99.90
21216;DHT22;10765;50.954;5.322;2023-12-20T05:32:25;5.70;99.90
21216;DHT22;10765;50.954;5.322;2023-12-20T05:34:52;5.60;99.90
21216;DHT22;10765;50.954;5.322;2023-12-20T05:37:18;5.50;99.90
21216;DHT22;10765;50.954;5.322;2023-12-20T05:39:45;5.50;99.90
21216;DHT22;10765;50.954;5.322;2023-12-20T05:42:12;5.40;99.90
21216;DHT22;10765;50.954;5.322;2023-12-20T05:44:41;5.30;99.90
21216;DHT22;10765;50.954;5.322;2023-12-20T05:47:07;5.20;99.90
21216;DHT22;10765;50.954;5.322;2023-12-20T05:49:36;5.10;99.90
21216;DHT22;10765;50.954;5.322;2023-12-20T05:52:03;5.10;99.90
21216;DHT22;10765;50.954;5.322;2023-12-20T05:54:30;5.00;99.90
21216;DHT22;10765;50.954;5.322;2023-12-20T05:56:57;5.00;99.90
21216;DHT22;10765;50.954;5.322;2023-12-20T05:59:24;4.90;99.90
21216;DHT22;10765;50.954;5.322;2023-12-20T06:01:51;4.90;99.90
21216;DHT22;10765;50.954;5.322;2023-12-20T06:04:17;4.90;99.90
21216;DHT22;10765;50.954;5.322;2023-12-20T06:06:46;4.80;99.90
21216;DHT22;10765;50.954;5.322;2023-12-20T06:09:13;4.80;99.90
21216;DHT22;10765;50.954;5.322;2023-12-20T06:11:40;4.80;99.90
21216;DHT22;10765;50.954;5.322;2023-12-20T06:14:07;4.80;99.90
21216;DHT22;10765;50.954;5.322;2023-12-20T06:16:34;4.70;99.90
21216;DHT22;10765;50.954;5.322;2023-12-20T06:19:01;4.70;99.90
21216;DHT22;10765;50.954;5.322;2023-12-20T06:21:28;4.80;99.90
21216;DHT22;10765;50.954;5.322;2023-12-20T06:23:58;4.70;99.90
21216;DHT22;10765;50.954;5.322;2023-12-20T06:26:25;4.70;99.90
21216;DHT22;10765;50.954;5.322;2023-12-20T06:28:52;4.70;99.90
21216;DHT22;10765;50.954;5.322;2023-12-20T06:31:20;4.80;99.90
21216;DHT22;10765;50.954;5.322;2023-12-20T06:33:47;4.90;99.90
21216;DHT22;10765;50.954;5.322;2023-12-20T06:36:15;4.90;99.90
21216;DHT22;10765;50.954;5.322;2023-12-20T06:38:42;5.00;99.90
21216;DHT22;10765;50.954;5.322;2023-12-20T06:41:13;5.10;99.90
21216;DHT22;10765;50.954;5.322;2023-12-20T06:43:40;5.20;99.90
21216;DHT22;10765;50.954;5.322;2023-12-20T06:46:07;5.30;99.90
21216;DHT22;10765;50.954;5.322;2023-12-20T06:48:34;5.30;99.90
21216;DHT22;10765;50.954;5.322;2023-12-20T06:51:01;5.40;99.90
21216;DHT22;10765;50.954;5.322;2023-12-20T06:53:28;5.40;99.90
21216;DHT22;10765;50.954;5.322;2023-12-20T06:55:55;5.40;99.90
21216;DHT22;10765;50.954;5.322;2023-12-20T06:58:24;5.40;99.90
21216;DHT22;10765;50.954;5.322;2023-12-20T07:00:51;5.50;99.90
21216;DHT22;10765;50.954;5.322;2023-12-20T07:03:18;5.50;99.90
21216;DHT22;10765;50.954;5.322;2023-12-20T07:05:45;5.40;99.90
21216;DHT22;10765;50.954;5.322;2023-12-20T07:08:11;5.20;99.90
21216;DHT22;10765;50.954;5.322;2023-12-20T07:10:39;5.20;99.90
21216;DHT22;10765;50.954;5.322;2023-12-20T07:13:07;5.10;99.90
21216;DHT22;10765;50.954;5.322;2023-12-20T07:15:35;5.10;99.90
21216;DHT22;10765;50.954;5.322;2023-12-20T07:18:03;5.10;99.90
21216;DHT22;10765;50.954;5.322;2023-12-20T07:20:30;5.10;99.90
21216;DHT22;10765;50.954;5.322;2023-12-20T07:22:57;5.00;99.90
21216;DHT22;10765;50.954;5.322;2023-12-20T07:25:24;4.90;99.90
21216;DHT22;10765;50.954;5.322;2023-12-20T07:27:51;4.90;99.90
21216;DHT22;10765;50.954;5.322;2023-12-20T07:30:18;4.90;99.90
21216;DHT22;10765;50.954;5.322;2023-12-20T07:32:47;4.90;99.90
21216;DHT22;10765;50.954;5.322;2023-12-20T07:35:14;4.90;99.90
21216;DHT22;10765;50.954;5.322;2023-12-20T07:37:41;4.90;99.90
21216;DHT22;10765;50.954;5.322;2023-12-20T07:40:08;5.00;99.90
21216;DHT22;10765;50.954;5.322;2023-12-20T07:42:35;5.00;99.90
21216;DHT22;10765;50.954;5.322;2023-12-20T07:45:03;5.10;99.90
21216;DHT22;10765;50.954;5.322;2023-12-20T07:47:30;5.00;99.90
21216;DHT22;10765;50.954;5.322;2023-12-20T07:49:58;4.90;99.90
21216;DHT22;10765;50.954;5.322;2023-12-20T07:52:26;4.90;99.90
21216;DHT22;10765;50.954;5.322;2023-12-20T07:54:53;4.90;99.90
21216;DHT22;10765;50.954;5.322;2023-12-20T07:57:19;4.90;99.90
21216;DHT22;10765;50.954;5.322;2023-12-20T07:59:47;4.90;99.90
21216;DHT22;10765;50.954;5.322;2023-12-20T08:02:13;5.00;99.90
21216;DHT22;10765;50.954;5.322;2023-12-20T08:04:40;5.10;99.90
21216;DHT22;10765;50.954;5.322;2023-12-20T08:07:09;5.20;99.90
21216;DHT22;10765;50.954;5.322;2023-12-20T08:09:35;5.20;99.90
21216;DHT22;10765;50.954;5.322;2023-12-20T08:12:03;5.20;99.90
21216;DHT22;10765;50.954;5.322;2023-12-20T08:14:30;5.30;99.90
21216;DHT22;10765;50.954;5.322;2023-12-20T08:16:57;5.40;99.90
21216;DHT22;10765;50.954;5.322;2023-12-20T08:19:23;5.60;99.90
21216;DHT22;10765;50.954;5.322;2023-12-20T08:21:50;5.80;99.90
21216;DHT22;10765;50.954;5.322;2023-12-20T08:24:19;6.10;99.90
21216;DHT22;10765;50.954;5.322;2023-12-20T08:26:45;6.80;99.90
21216;DHT22;10765;50.954;5.322;2023-12-20T08:29:13;7.40;99.90
21216;DHT22;10765;50.954;5.322;2023-12-20T08:31:40;7.50;99.90
21216;DHT22;10765;50.954;5.322;2023-12-20T08:34:07;7.70;99.90
21216;DHT22;10765;50.954;5.322;2023-12-20T08:36:34;7.40;99.90
21216;DHT22;10765;50.954;5.322;2023-12-20T08:39:00;7.10;99.90
21216;DHT22;10765;50.954;5.322;2023-12-20T08:41:30;7.20;99.90
21216;DHT22;10765;50.954;5.322;2023-12-20T08:43:57;7.10;99.90
21216;DHT22;10765;50.954;5.322;2023-12-20T08:46:24;6.80;99.90
21216;DHT22;10765;50.954;5.322;2023-12-20T08:48:51;6.60;1.00
21216;DHT22;10765;50.954;5.322;2023-12-20T08:51:18;6.40;1.00
21216;DHT22;10765;50.954;5.322;2023-12-20T08:53:45;6.30;99.90
21216;DHT22;10765;50.954;5.322;2023-12-20T08:56:13;6.30;30.10
21216;DHT22;10765;50.954;5.322;2023-12-20T08:58:41;6.20;1.00
21216;DHT22;10765;50.954;5.322;2023-12-20T09:01:08;6.20;99.90
21216;DHT22;10765;50.954;5.322;2023-12-20T09:03:35;6.10;99.90
21216;DHT22;10765;50.954;5.322;2023-12-20T09:06:02;6.10;99.90
21216;DHT22;10765;50.954;5.322;2023-12-20T09:08:29;6.10;99.90
21216;DHT22;10765;50.954;5.322;2023-12-20T09:10:56;6.00;1.00
21216;DHT22;10765;50.954;5.322;2023-12-20T09:13:23;6.20;99.90
21216;DHT22;10765;50.954;5.322;2023-12-20T09:15:55;6.70;1.00
21216;DHT22;10765;50.954;5.322;2023-12-20T09:18:21;8.10;99.90
21216;DHT22;10765;50.954;5.322;2023-12-20T09:20:48;9.10;1.00
21216;DHT22;10765;50.954;5.322;2023-12-20T09:23:15;10.00;1.00
21216;DHT22;10765;50.954;5.322;2023-12-20T09:25:42;10.40;1.00
21216;DHT22;10765;50.954;5.322;2023-12-20T09:28:10;10.50;99.90
21216;DHT22;10765;50.954;5.322;2023-12-20T09:30:36;10.80;99.90
21216;DHT22;10765;50.954;5.322;2023-12-20T09:33:06;11.70;99.90
21216;DHT22;10765;50.954;5.322;2023-12-20T09:35:33;12.40;94.30
21216;DHT22;10765;50.954;5.322;2023-12-20T09:38:00;12.20;1.00
21216;DHT22;10765;50.954;5.322;2023-12-20T09:40:28;11.20;1.00
21216;DHT22;10765;50.954;5.322;2023-12-20T09:42:57;10.70;67.70
21216;DHT22;10765;50.954;5.322;2023-12-20T09:45:24;10.70;99.90
21216;DHT22;10765;50.954;5.322;2023-12-20T09:47:53;9.80;99.90
21216;DHT22;10765;50.954;5.322;2023-12-20T09:50:22;9.00;99.90
21216;DHT22;10765;50.954;5.322;2023-12-20T09:52:50;9.00;99.90
21216;DHT22;10765;50.954;5.322;2023-12-20T09:55:18;8.90;99.90
21216;DHT22;10765;50.954;5.322;2023-12-20T09:57:46;8.90;99.90
21216;DHT22;10765;50.954;5.322;2023-12-20T10:00:13;9.20;99.90
21216;DHT22;10765;50.954;5.322;2023-12-20T10:02:45;9.30;99.90
21216;DHT22;10765;50.954;5.322;2023-12-20T10:05:16;9.60;99.90
21216;DHT22;10765;50.954;5.322;2023-12-20T10:07:46;9.90;99.90
21216;DHT22;10765;50.954;5.322;2023-12-20T10:10:13;9.80;99.90
21216;DHT22;10765;50.954;5.322;2023-12-20T10:12:40;9.30;99.90
21216;DHT22;10765;50.954;5.322;2023-12-20T10:15:27;9.40;99.90
21216;DHT22;10765;50.954;5.322;2023-12-20T10:17:53;9.90;99.90
21216;DHT22;10765;50.954;5.322;2023-12-20T10:20:21;9.30;99.90
21216;DHT22;10765;50.954;5.322;2023-12-20T10:22:49;8.70;99.90
21216;DHT22;10765;50.954;5.322;2023-12-20T10:25:19;8.70;99.90
21216;DHT22;10765;50.954;5.322;2023-12-20T10:27:46;8.60;1.00
21216;DHT22;10765;50.954;5.322;2023-12-20T10:30:13;8.30;1.00
21216;DHT22;10765;50.954;5.322;2023-12-20T10:32:41;7.90;1.00
21216;DHT22;10765;50.954;5.322;2023-12-20T10:35:09;7.80;99.90
21216;DHT22;10765;50.954;5.322;2023-12-20T10:37:36;7.80;99.90
21216;DHT22;10765;50.954;5.322;2023-12-20T10:40:06;7.90;1.00
21216;DHT22;10765;50.954;5.322;2023-12-20T10:42:33;7.80;99.90
21216;DHT22;10765;50.954;5.322;2023-12-20T10:45:02;7.90;99.90
21216;DHT22;10765;50.954;5.322;2023-12-20T10:47:30;7.90;99.90
21216;DHT22;10765;50.954;5.322;2023-12-20T10:49:59;7.80;99.90
21216;DHT22;10765;50.954;5.322;2023-12-20T10:52:28;7.90;99.90
21216;DHT22;10765;50.954;5.322;2023-12-20T10:54:56;7.90;99.90
21216;DHT22;10765;50.954;5.322;2023-12-20T10:57:27;7.90;99.90
21216;DHT22;10765;50.954;5.322;2023-12-20T10:59:55;8.10;99.90
21216;DHT22;10765;50.954;5.322;2023-12-20T11:02:22;8.20;1.00
21216;DHT22;10765;50.954;5.322;2023-12-20T11:04:53;8.30;99.90
21216;DHT22;10765;50.954;5.322;2023-12-20T11:07:28;8.50;1.00
21216;DHT22;10765;50.954;5.322;2023-12-20T11:09:59;8.50;1.00
21216;DHT22;10765;50.954;5.322;2023-12-20T11:12:37;8.50;1.00
21216;DHT22;10765;50.954;5.322;2023-12-20T11:15:05;8.50;1.00
21216;DHT22;10765;50.954;5.322;2023-12-20T11:17:33;8.30;1.00
21216;DHT22;10765;50.954;5.322;2023-12-20T11:20:07;8.30;1.00
21216;DHT22;10765;50.954;5.322;2023-12-20T11:22:36;8.40;1.00
21216;DHT22;10765;50.954;5.322;2023-12-20T11:25:05;8.60;1.00
21216;DHT22;10765;50.954;5.322;2023-12-20T11:27:35;8.50;1.00
21216;DHT22;10765;50.954;5.322;2023-12-20T11:30:04;8.30;1.00
21216;DHT22;10765;50.954;5.322;2023-12-20T11:32:34;8.50;1.00
21216;DHT22;10765;50.954;5.322;2023-12-20T11:35:16;8.20;1.00
21216;DHT22;10765;50.954;5.322;2023-12-20T11:37:44;8.20;99.90
21216;DHT22;10765;50.954;5.322;2023-12-20T11:40:14;8.20;31.50
21216;DHT22;10765;50.954;5.322;2023-12-20T11:42:44;8.00;99.90
21216;DHT22;10765;50.954;5.322;2023-12-20T11:45:14;7.90;99.90
21216;DHT22;10765;50.954;5.322;2023-12-20T11:47:42;7.90;1.00
21216;DHT22;10765;50.954;5.322;2023-12-20T11:50:10;7.90;1.00
21216;DHT22;10765;50.954;5.322;2023-12-20T11:52:37;7.90;1.00
21216;DHT22;10765;50.954;5.322;2023-12-20T11:55:05;7.90;1.00
21216;DHT22;10765;50.954;5.322;2023-12-20T11:57:32;7.90;1.00
21216;DHT22;10765;50.954;5.322;2023-12-20T12:00:00;7.80;1.00
21216;DHT22;10765;50.954;5.322;2023-12-20T12:02:28;7.80;18.80
21216;DHT22;10765;50.954;5.322;2023-12-20T12:04:55;7.60;1.00
21216;DHT22;10765;50.954;5.322;2023-12-20T12:07:24;7.50;32.00
21216;DHT22;10765;50.954;5.322;2023-12-20T12:09:51;7.40;1.00
21216;DHT22;10765;50.954;5.322;2023-12-20T12:12:19;7.30;92.70
21216;DHT22;10765;50.954;5.322;2023-12-20T12:14:46;7.40;1.00
21216;DHT22;10765;50.954;5.322;2023-12-20T12:17:15;7.30;99.90
21216;DHT22;10765;50.954;5.322;2023-12-20T12:19:42;7.30;1.00
21216;DHT22;10765;50.954;5.322;2023-12-20T12:22:10;7.30;99.90
21216;DHT22;10765;50.954;5.322;2023-12-20T12:24:39;7.20;99.90
21216;DHT22;10765;50.954;5.322;2023-12-20T12:27:06;7.30;99.90
21216;DHT22;10765;50.954;5.322;2023-12-20T12:29:34;7.20;1.00
21216;DHT22;10765;50.954;5.322;2023-12-20T12:32:01;7.20;99.90
21216;DHT22;10765;50.954;5.322;2023-12-20T12:34:35;7.20;99.90
21216;DHT22;10765;50.954;5.322;2023-12-20T12:37:04;7.30;1.00
21216;DHT22;10765;50.954;5.322;2023-12-20T12:39:31;7.40;1.00
21216;DHT22;10765;50.954;5.322;2023-12-20T12:41:57;7.30;1.00
21216;DHT22;10765;50.954;5.322;2023-12-20T12:44:24;7.30;99.90
21216;DHT22;10765;50.954;5.322;2023-12-20T12:46:52;7.40;99.90
21216;DHT22;10765;50.954;5.322;2023-12-20T12:49:19;7.50;1.00
21216;DHT22;10765;50.954;5.322;2023-12-20T12:51:48;7.60;99.90
21216;DHT22;10765;50.954;5.322;2023-12-20T12:54:15;7.60;1.00
21216;DHT22;10765;50.954;5.322;2023-12-20T12:56:44;7.60;99.90
21216;DHT22;10765;50.954;5.322;2023-12-20T12:59:12;7.60;99.90
21216;DHT22;10765;50.954;5.322;2023-12-20T13:01:39;7.40;1.00
21216;DHT22;10765;50.954;5.322;2023-12-20T13:04:06;7.50;1.00
21216;DHT22;10765;50.954;5.322;2023-12-20T13:06:36;7.50;1.00
21216;DHT22;10765;50.954;5.322;2023-12-20T13:09:04;7.50;40.20
21216;DHT22;10765;50.954;5.322;2023-12-20T13:11:31;7.60;1.00
21216;DHT22;10765;50.954;5.322;2023-12-20T13:13:58;7.50;1.00
21216;DHT22;10765;50.954;5.322;2023-12-20T13:16:25;7.60;99.90
21216;DHT22;10765;50.954;5.322;2023-12-20T13:18:52;7.60;1.00
21216;DHT22;10765;50.954;5.322;2023-12-20T13:21:19;7.60;1.00
21216;DHT22;10765;50.954;5.322;2023-12-20T13:23:46;7.60;1.00
21216;DHT22;10765;50.954;5.322;2023-12-20T13:26:14;7.70;1.00
21216;DHT22;10765;50.954;5.322;2023-12-20T13:28:41;7.70;99.90
21216;DHT22;10765;50.954;5.322;2023-12-20T13:31:08;7.80;13.00
21216;DHT22;10765;50.954;5.322;2023-12-20T13:33:35;7.70;99.90
21216;DHT22;10765;50.954;5.322;2023-12-20T13:36:04;7.70;1.00
21216;DHT22;10765;50.954;5.322;2023-12-20T13:38:31;7.70;99.90
21216;DHT22;10765;50.954;5.322;2023-12-20T13:40:58;7.70;99.90
21216;DHT22;10765;50.954;5.322;2023-12-20T13:43:26;7.70;99.90
21216;DHT22;10765;50.954;5.322;2023-12-20T13:45:53;7.60;99.90
21216;DHT22;10765;50.954;5.322;2023-12-20T13:48:20;7.60;99.90
21216;DHT22;10765;50.954;5.322;2023-12-20T13:50:47;7.80;1.00
21216;DHT22;10765;50.954;5.322;2023-12-20T13:53:14;7.80;99.90
21216;DHT22;10765;50.954;5.322;2023-12-20T13:55:41;7.80;99.90
21216;DHT22;10765;50.954;5.322;2023-12-20T13:58:08;7.80;1.00
21216;DHT22;10765;50.954;5.322;2023-12-20T14:00:37;7.90;99.90
21216;DHT22;10765;50.954;5.322;2023-12-20T14:03:04;7.90;99.90
21216;DHT22;10765;50.954;5.322;2023-12-20T14:05:31;7.90;31.80
21216;DHT22;10765;50.954;5.322;2023-12-20T14:07:59;7.90;1.00
21216;DHT22;10765;50.954;5.322;2023-12-20T14:10:26;7.90;1.00
21216;DHT22;10765;50.954;5.322;2023-12-20T14:12:53;7.90;99.90
21216;DHT22;10765;50.954;5.322;2023-12-20T14:15:20;7.90;99.90
21216;DHT22;10765;50.954;5.322;2023-12-20T14:17:52;8.00;1.00
21216;DHT22;10765;50.954;5.322;2023-12-20T14:20:20;8.10;99.90
21216;DHT22;10765;50.954;5.322;2023-12-20T14:22:47;8.10;1.00
21216;DHT22;10765;50.954;5.322;2023-12-20T14:25:14;8.10;92.20
21216;DHT22;10765;50.954;5.322;2023-12-20T14:27:41;8.10;99.90
21216;DHT22;10765;50.954;5.322;2023-12-20T14:30:10;8.10;99.90
21216;DHT22;10765;50.954;5.322;2023-12-20T14:32:39;8.00;99.90
21216;DHT22;10765;50.954;5.322;2023-12-20T14:35:08;8.00;1.00
21216;DHT22;10765;50.954;5.322;2023-12-20T14:37:35;8.00;99.90
21216;DHT22;10765;50.954;5.322;2023-12-20T14:40:05;8.00;1.00
21216;DHT22;10765;50.954;5.322;2023-12-20T14:42:36;8.10;99.90
21216;DHT22;10765;50.954;5.322;2023-12-20T14:45:04;8.10;99.90
21216;DHT22;10765;50.954;5.322;2023-12-20T14:47:31;8.10;99.90
21216;DHT22;10765;50.954;5.322;2023-12-20T14:49:57;8.20;70.30
21216;DHT22;10765;50.954;5.322;2023-12-20T14:52:26;8.20;16.50
21216;DHT22;10765;50.954;5.322;2023-12-20T14:54:53;8.10;1.00
21216;DHT22;10765;50.954;5.322;2023-12-20T14:57:19;8.10;55.00
21216;DHT22;10765;50.954;5.322;2023-12-20T14:59:46;8.10;99.90
21216;DHT22;10765;50.954;5.322;2023-12-20T15:02:13;8.10;99.90
21216;DHT22;10765;50.954;5.322;2023-12-20T15:04:41;8.10;99.90
21216;DHT22;10765;50.954;5.322;2023-12-20T15:07:08;8.10;99.90
21216;DHT22;10765;50.954;5.322;2023-12-20T15:09:36;8.10;99.90
21216;DHT22;10765;50.954;5.322;2023-12-20T15:12:04;8.10;99.90
21216;DHT22;10765;50.954;5.322;2023-12-20T15:14:31;8.10;99.90
21216;DHT22;10765;50.954;5.322;2023-12-20T15:16:58;8.00;1.00
21216;DHT22;10765;50.954;5.322;2023-12-20T15:19:24;8.10;99.90
21216;DHT22;10765;50.954;5.322;2023-12-20T15:21:51;8.10;1.00
21216;DHT22;10765;50.954;5.322;2023-12-20T15:24:18;8.00;1.00
21216;DHT22;10765;50.954;5.322;2023-12-20T15:26:54;8.10;79.10
21216;DHT22;10765;50.954;5.322;2023-12-20T15:29:21;8.10;1.00
21216;DHT22;10765;50.954;5.322;2023-12-20T15:31:48;8.10;1.00
21216;DHT22;10765;50.954;5.322;2023-12-20T15:34:15;8.10;1.00
21216;DHT22;10765;50.954;5.322;2023-12-20T15:36:42;8.10;99.90
21216;DHT22;10765;50.954;5.322;2023-12-20T15:39:09;8.10;99.90
21216;DHT22;10765;50.954;5.322;2023-12-20T15:41:40;8.10;99.90
21216;DHT22;10765;50.954;5.322;2023-12-20T15:44:08;8.20;84.70
21216;DHT22;10765;50.954;5.322;2023-12-20T15:46:35;8.20;1.00
21216;DHT22;10765;50.954;5.322;2023-12-20T15:49:02;8.20;1.00